Time;durP1;ratioP1;P1;durP2;ratioP2;P2;SDS_P1;SDS_P2;PMS_P1;PMS_P2;Temp;Humidity;BMP_temperature;BMP_pressure;BME280_temperature;BME280_humidity;BME280_pressure;Samples;Min_cycle;Max_cycle;Signal;HPM_P1;HPM_P2
2022/10/16 00:01:13;;;;;;;8.07;3.38;;;14.40;91.50;;;;;;5015842;28;20018;-77
2022/10/16 00:03:40;;;;;;;11.93;3.38;;;14.40;91.50;;;;;;5016408;28;20069;-78
2022/10/16 00:06:07;;;;;;;7.32;2.63;;;14.40;91.40;;;;;;5017462;28;20030;-79
2022/10/16 00:08:34;;;;;;;9.27;3.15;;;14.30;91.40;;;;;;5011085;28;20018;-77
2022/10/16 00:11:21;;;;;;;10.05;3.88;;;14.30;91.40;;;;;;5010335;28;20080;-78
2022/10/16 00:13:48;;;;;;;9.50;3.83;;;14.30;91.40;;;;;;5016339;28;20101;-77
2022/10/16 00:16:15;;;;;;;6.93;2.85;;;14.30;91.40;;;;;;5021892;28;20018;-79
2022/10/16 00:18:41;;;;;;;6.13;2.55;;;14.30;91.40;;;;;;5023291;28;20052;-78
2022/10/16 00:21:08;;;;;;;8.38;2.38;;;14.30;91.40;;;;;;4999979;28;20116;-77
2022/10/16 00:23:36;;;;;;;4.78;2.42;;;14.30;91.30;;;;;;5018987;28;20052;-79
2022/10/16 00:26:04;;;;;;;5.05;2.30;;;14.30;91.30;;;;;;5005315;28;20076;-78
2022/10/16 00:28:32;;;;;;;8.57;2.83;;;14.30;91.20;;;;;;5019211;28;20070;-77
2022/10/16 00:30:57;;;;;;;7.25;2.63;;;14.30;91.30;;;;;;5017338;28;20156;-78
2022/10/16 00:33:25;;;;;;;8.73;3.67;;;14.30;91.30;;;;;;5005631;28;20105;-77
2022/10/16 00:35:54;;;;;;;8.75;3.05;;;14.30;91.40;;;;;;5022042;28;20026;-78
2022/10/16 00:38:19;;;;;;;9.60;3.67;;;14.30;91.30;;;;;;5021369;28;20022;-77
2022/10/16 00:40:45;;;;;;;6.22;2.92;;;14.30;91.40;;;;;;5027925;28;20048;-76
2022/10/16 00:43:34;;;;;;;8.63;2.78;;;14.30;91.90;;;;;;5026263;28;20029;-76
2022/10/16 00:46:04;;;;;;;5.47;2.65;;;14.30;91.50;;;;;;5023816;28;20529;-77
2022/10/16 00:48:30;;;;;;;5.68;2.53;;;14.30;91.50;;;;;;5028035;28;20464;-77
2022/10/16 00:50:58;;;;;;;4.72;2.17;;;14.30;91.70;;;;;;5024327;28;20089;-77
2022/10/16 00:53:25;;;;;;;5.88;2.78;;;14.20;91.70;;;;;;5034940;28;20071;-78
2022/10/16 00:55:51;;;;;;;4.57;2.33;;;14.30;91.50;;;;;;5032705;28;20054;-78
2022/10/16 00:58:17;;;;;;;5.38;2.30;;;14.20;91.60;;;;;;5025147;28;20029;-77
2022/10/16 01:00:43;;;;;;;10.55;3.47;;;14.20;91.60;;;;;;5007676;28;20032;-77
2022/10/16 01:03:32;;;;;;;9.05;3.28;;;14.20;91.90;;;;;;5023989;28;20022;-78
2022/10/16 01:06:20;;;;;;;6.45;2.97;;;14.20;92.00;;;;;;5017425;28;20041;-77
2022/10/16 01:08:46;;;;;;;5.60;2.80;;;14.20;92.10;;;;;;5021284;28;20049;-78
2022/10/16 01:11:35;;;;;;;8.88;3.42;;;14.20;92.10;;;;;;5022210;28;20026;-78
2022/10/16 01:14:17;;;;;;;7.22;3.17;;;14.20;92.20;;;;;;5024228;28;20042;-77
2022/10/16 01:16:57;;;;;;;7.95;3.17;;;14.20;92.30;;;;;;5021661;28;20026;-78
2022/10/16 01:19:38;;;;;;;7.43;2.95;;;14.10;92.40;;;;;;5024693;28;20683;-78
2022/10/16 01:22:07;;;;;;;10.32;3.85;;;14.10;92.40;;;;;;5023182;28;20034;-76
2022/10/16 01:24:41;;;;;;;11.05;3.13;;;14.10;92.80;;;;;;5006452;28;20030;-77
2022/10/16 01:27:13;;;;;;;6.72;3.95;;;14.10;92.80;;;;;;5023611;28;20116;-79
2022/10/16 01:29:54;;;;;;;10.32;3.65;;;14.10;92.90;;;;;;5025864;28;20085;-77
2022/10/16 01:32:44;;;;;;;8.73;3.45;;;14.10;93.00;;;;;;5026140;28;20108;-77
2022/10/16 01:35:23;;;;;;;;;;;14.10;93.20;;;;;;5019468;28;20052;-77
2022/10/16 01:37:57;;;;;;;7.78;3.67;;;14.10;92.90;;;;;;5021223;28;19916;-77
2022/10/16 01:40:26;;;;;;;7.82;4.03;;;14.10;92.90;;;;;;5022462;28;20061;-76
2022/10/16 01:43:11;;;;;;;7.47;3.78;;;14.10;92.90;;;;;;5024447;28;20030;-77
2022/10/16 01:45:39;;;;;;;10.38;4.75;;;14.10;92.90;;;;;;5024451;28;20053;-78
2022/10/16 01:48:07;;;;;;;6.15;3.45;;;14.10;93.20;;;;;;5019607;28;20124;-78
2022/10/16 01:50:38;;;;;;;7.13;3.63;;;14.10;93.20;;;;;;5020807;28;20097;-76
2022/10/16 01:53:05;;;;;;;8.95;4.50;;;14.10;93.30;;;;;;5023765;28;20038;-79
2022/10/16 01:55:37;;;;;;;9.57;4.03;;;14.10;93.40;;;;;;5004776;28;20058;-75
2022/10/16 01:58:07;;;;;;;10.52;4.20;;;14.10;93.40;;;;;;5022709;28;20523;-77
2022/10/16 02:00:37;;;;;;;9.52;4.20;;;14.10;93.40;;;;;;5013246;28;20033;-78
2022/10/16 02:03:05;;;;;;;10.70;3.53;;;14.10;93.40;;;;;;5018590;28;20033;-78
2022/10/16 02:05:45;;;;;;;8.45;3.60;;;14.20;93.40;;;;;;5006035;28;20479;-78
2022/10/16 02:08:12;;;;;;;9.10;3.85;;;14.20;93.40;;;;;;5022082;28;20090;-77
2022/10/16 02:10:38;;;;;;;5.63;3.08;;;14.20;93.40;;;;;;5018365;28;20029;-78
2022/10/16 02:13:10;;;;;;;6.80;3.38;;;14.20;93.10;;;;;;5025613;28;20056;-76
2022/10/16 02:15:36;;;;;;;6.75;3.38;;;14.20;93.30;;;;;;5027651;28;20022;-77
2022/10/16 02:18:07;;;;;;;5.28;3.20;;;14.20;93.30;;;;;;5020359;28;20072;-77
2022/10/16 02:20:40;;;;;;;7.07;2.97;;;14.20;93.50;;;;;;5020410;28;20029;-76
2022/10/16 02:23:11;;;;;;;5.45;2.95;;;14.20;93.30;;;;;;5017246;28;20026;-78
2022/10/16 02:25:42;;;;;;;5.78;3.05;;;14.20;92.90;;;;;;5022873;28;20021;-79
2022/10/16 02:28:13;;;;;;;10.73;3.40;;;14.20;93.10;;;;;;5008423;28;20034;-77
2022/10/16 02:30:56;;;;;;;7.82;3.08;;;14.20;93.30;;;;;;5009243;28;20049;-77
2022/10/16 02:33:24;;;;;;;7.35;2.83;;;14.20;93.40;;;;;;5016780;28;20038;-77
2022/10/16 02:35:51;;;;;;;9.57;3.05;;;14.20;93.40;;;;;;5023881;28;20092;-77
2022/10/16 02:38:20;;;;;;;6.43;3.05;;;14.20;93.10;;;;;;5002942;28;20034;-77
2022/10/16 02:40:46;;;;;;;7.72;3.55;;;14.20;93.50;;;;;;5006611;28;20030;-78
2022/10/16 02:43:11;;;;;;;5.15;2.30;;;14.20;93.30;;;;;;5025145;28;20020;-77
2022/10/16 02:45:37;;;;;;;6.93;2.83;;;14.20;93.20;;;;;;5022004;28;20006;-77
2022/10/16 02:48:04;;;;;;;4.57;2.55;;;14.20;93.30;;;;;;5017456;28;20017;-78
2022/10/16 02:50:30;;;;;;;6.72;3.15;;;14.20;93.30;;;;;;5025374;28;20602;-78
2022/10/16 02:52:56;;;;;;;4.57;2.40;;;14.30;93.30;;;;;;5023254;28;20053;-76
2022/10/16 02:55:22;;;;;;;4.65;2.45;;;14.20;93.30;;;;;;5022144;28;20030;-77
2022/10/16 02:57:48;;;;;;;7.03;3.08;;;14.20;93.40;;;;;;5018862;28;20022;-77
2022/10/16 03:00:16;;;;;;;6.28;3.15;;;14.20;93.40;;;;;;5018034;28;20024;-78
2022/10/16 03:02:42;;;;;;;8.13;3.17;;;14.20;93.40;;;;;;5020325;28;20038;-78
2022/10/16 03:05:09;;;;;;;7.90;4.03;;;14.20;93.50;;;;;;5020830;28;20021;-77
2022/10/16 03:07:34;;;;;;;7.03;3.10;;;14.20;93.60;;;;;;5012850;28;20052;-76
2022/10/16 03:10:00;;;;;;;7.25;3.45;;;14.10;93.70;;;;;;5015164;28;20492;-78
2022/10/16 03:12:27;;;;;;;6.28;2.75;;;14.20;93.60;;;;;;5023568;28;20148;-77
2022/10/16 03:14:53;;;;;;;7.00;2.65;;;14.20;93.70;;;;;;5018877;28;20041;-76
2022/10/16 03:17:18;;;;;;;6.03;2.83;;;14.20;93.70;;;;;;5021864;28;20046;-77
2022/10/16 03:19:51;;;;;;;7.13;3.42;;;14.20;93.90;;;;;;5023552;28;20029;-77
2022/10/16 03:22:17;;;;;;;9.02;3.28;;;14.20;93.60;;;;;;5015611;28;20022;-77
2022/10/16 03:24:43;;;;;;;4.80;2.85;;;14.20;93.50;;;;;;5018643;28;20033;-78
2022/10/16 03:27:08;;;;;;;6.75;2.75;;;14.20;93.50;;;;;;5009700;28;20407;-77
2022/10/16 03:29:34;;;;;;;4.03;2.20;;;14.20;93.60;;;;;;5018796;28;20037;-77
2022/10/16 03:32:00;;;;;;;5.85;3.05;;;14.20;93.40;;;;;;5023593;28;20065;-77
2022/10/16 03:34:26;;;;;;;7.68;2.83;;;14.20;93.60;;;;;;5017153;28;20168;-77
2022/10/16 03:36:52;;;;;;;5.97;2.85;;;14.20;93.70;;;;;;5024138;28;20046;-77
2022/10/16 03:39:18;;;;;;;6.75;2.45;;;14.10;93.60;;;;;;5024163;28;20030;-77
2022/10/16 03:41:44;;;;;;;6.32;2.50;;;14.10;93.60;;;;;;5017464;28;20033;-77
2022/10/16 03:44:09;;;;;;;4.50;2.33;;;14.10;93.70;;;;;;5001649;28;20377;-77
2022/10/16 03:46:35;;;;;;;6.00;3.10;;;14.10;93.70;;;;;;5017065;28;20030;-76
2022/10/16 03:49:00;;;;;;;5.72;2.65;;;14.10;93.80;;;;;;5018034;28;20668;-76
2022/10/16 03:51:26;;;;;;;6.53;2.90;;;14.10;93.70;;;;;;5023014;28;20013;-77
2022/10/16 03:53:51;;;;;;;4.47;2.45;;;14.10;93.80;;;;;;5023438;28;20064;-78
2022/10/16 03:56:17;;;;;;;8.57;3.15;;;14.10;93.80;;;;;;5015637;28;20057;-77
2022/10/16 03:58:43;;;;;;;6.38;2.67;;;14.10;93.90;;;;;;5015050;28;20022;-77
2022/10/16 04:01:09;;;;;;;4.70;2.30;;;14.10;93.80;;;;;;5013533;28;20106;-77
2022/10/16 04:03:35;;;;;;;7.00;2.47;;;14.10;93.60;;;;;;5014327;28;20080;-76
2022/10/16 04:06:01;;;;;;;5.85;2.47;;;14.10;93.70;;;;;;5010496;28;20054;-77
2022/10/16 04:08:27;;;;;;;5.85;2.53;;;14.10;93.70;;;;;;5004452;28;20029;-77
2022/10/16 04:10:52;;;;;;;11.32;2.83;;;14.10;93.70;;;;;;5017739;28;20423;-76
2022/10/16 04:13:18;;;;;;;6.28;2.72;;;14.10;93.80;;;;;;5018491;28;20049;-77
2022/10/16 04:15:45;;;;;;;5.20;2.72;;;14.10;93.70;;;;;;5021819;28;20026;-77
2022/10/16 04:18:11;;;;;;;4.22;2.10;;;14.10;93.70;;;;;;5020156;28;20054;-77
2022/10/16 04:20:39;;;;;;;6.63;2.47;;;14.10;93.70;;;;;;5007269;28;20041;-76
2022/10/16 04:23:04;;;;;;;5.13;2.70;;;14.10;93.80;;;;;;5019409;28;20096;-77
2022/10/16 04:25:30;;;;;;;9.70;2.97;;;14.10;93.90;;;;;;5016021;28;20034;-76
2022/10/16 04:27:56;;;;;;;6.28;2.88;;;14.10;93.90;;;;;;5002203;28;20034;-77
2022/10/16 04:30:22;;;;;;;5.13;2.85;;;14.10;93.80;;;;;;5005987;28;20098;-78
2022/10/16 04:32:50;;;;;;;6.13;3.05;;;14.10;93.80;;;;;;5017840;28;20042;-78
2022/10/16 04:35:17;;;;;;;6.65;2.97;;;14.10;93.60;;;;;;5022723;28;20017;-77
2022/10/16 04:37:43;;;;;;;4.47;2.20;;;14.10;93.80;;;;;;4999665;28;20024;-78
2022/10/16 04:40:09;;;;;;;4.32;2.47;;;14.10;93.60;;;;;;5017027;28;20137;-78
2022/10/16 04:42:34;;;;;;;5.53;2.38;;;14.10;93.70;;;;;;5020806;28;20077;-77
2022/10/16 04:45:00;;;;;;;6.68;3.03;;;14.10;93.70;;;;;;5022326;28;20037;-77
2022/10/16 04:47:25;;;;;;;6.10;3.28;;;14.10;93.60;;;;;;5019722;28;20022;-76
2022/10/16 04:49:52;;;;;;;5.10;2.60;;;14.00;93.90;;;;;;5020843;28;20161;-76
2022/10/16 04:52:18;;;;;;;7.00;2.85;;;14.00;93.70;;;;;;5018900;28;20026;-76
2022/10/16 04:54:45;;;;;;;6.53;3.45;;;14.00;94.00;;;;;;5022052;28;20018;-78
2022/10/16 04:57:11;;;;;;;8.85;3.10;;;14.00;93.70;;;;;;5018453;28;20033;-76
2022/10/16 04:59:37;;;;;;;18.33;7.53;;;14.00;93.80;;;;;;5003199;28;20041;-75
2022/10/16 05:02:04;;;;;;;10.05;4.63;;;14.00;93.90;;;;;;5023792;28;20026;-77
2022/10/16 05:04:30;;;;;;;8.65;3.17;;;14.10;93.90;;;;;;5029051;28;20017;-77
2022/10/16 05:06:55;;;;;;;10.00;4.72;;;14.10;93.90;;;;;;5028928;28;20010;-77
2022/10/16 05:09:22;;;;;;;6.32;3.58;;;14.10;93.90;;;;;;5027985;28;20577;-78
2022/10/16 05:11:47;;;;;;;10.60;4.55;;;14.10;93.80;;;;;;5030277;28;20029;-76
2022/10/16 05:14:18;;;;;;;17.30;6.72;;;14.10;93.80;;;;;;5009033;28;20088;-76
2022/10/16 05:16:44;;;;;;;6.55;3.30;;;14.00;93.90;;;;;;5016419;28;20022;-77
2022/10/16 05:19:12;;;;;;;6.22;3.70;;;14.00;93.80;;;;;;5026857;28;20049;-77
2022/10/16 05:21:37;;;;;;;6.38;3.78;;;14.00;93.90;;;;;;5022790;28;20022;-77
2022/10/16 05:24:04;;;;;;;4.72;3.20;;;13.90;94.00;;;;;;5010597;28;20018;-75
2022/10/16 05:26:30;;;;;;;6.15;2.40;;;13.90;94.10;;;;;;5024496;28;20030;-77
2022/10/16 05:28:55;;;;;;;7.20;2.90;;;13.90;94.10;;;;;;5026160;28;20049;-77
2022/10/16 05:31:21;;;;;;;6.20;2.88;;;13.90;94.10;;;;;;5023600;28;20030;-77
2022/10/16 05:33:48;;;;;;;9.75;3.75;;;13.90;94.10;;;;;;5018258;28;20041;-76
2022/10/16 05:36:14;;;;;;;5.75;2.78;;;13.80;94.10;;;;;;5025214;28;20026;-76
2022/10/16 05:38:40;;;;;;;4.97;2.65;;;13.90;94.20;;;;;;5005044;28;20013;-77
2022/10/16 05:41:05;;;;;;;7.75;3.33;;;13.80;94.10;;;;;;5029894;28;20092;-77
2022/10/16 05:43:35;;;;;;;8.20;3.22;;;13.80;94.20;;;;;;5022607;28;20036;-77
2022/10/16 05:46:05;;;;;;;7.47;3.00;;;13.80;94.20;;;;;;5027108;28;20018;-77
2022/10/16 05:48:32;;;;;;;9.18;4.10;;;13.80;94.30;;;;;;5023195;28;20034;-75
2022/10/16 05:51:07;;;;;;;10.20;4.32;;;13.70;94.40;;;;;;5029952;28;20021;-77
2022/10/16 05:53:34;;;;;;;7.55;3.72;;;13.70;94.40;;;;;;5030331;28;20046;-76
2022/10/16 05:56:01;;;;;;;7.05;3.75;;;13.70;94.40;;;;;;5029709;28;20014;-77
2022/10/16 05:58:37;;;;;;;7.53;3.25;;;13.70;94.40;;;;;;5010686;28;20486;-78
2022/10/16 06:01:06;;;;;;;7.47;3.55;;;13.70;94.70;;;;;;5029141;28;20022;-78
2022/10/16 06:03:33;;;;;;;6.82;3.08;;;13.70;94.40;;;;;;5027560;28;20030;-76
2022/10/16 06:05:58;;;;;;;7.13;3.00;;;13.60;94.40;;;;;;5011492;28;20034;-77
2022/10/16 06:08:24;;;;;;;5.25;3.05;;;13.70;94.40;;;;;;5025236;28;20044;-77
2022/10/16 06:11:01;;;;;;;9.32;3.80;;;13.60;94.40;;;;;;5024422;28;20903;-76
2022/10/16 06:13:27;;;;;;;5.45;3.13;;;13.60;94.70;;;;;;5024166;28;20145;-77
2022/10/16 06:15:53;;;;;;;9.07;3.50;;;13.60;94.50;;;;;;5027979;28;20018;-76
2022/10/16 06:18:18;;;;;;;5.00;2.35;;;13.60;94.60;;;;;;5025934;28;20034;-77
2022/10/16 06:20:44;;;;;;;5.20;3.05;;;13.60;94.60;;;;;;5022722;28;20057;-76
2022/10/16 06:23:15;;;;;;;9.00;3.83;;;13.60;94.70;;;;;;5023501;28;20038;-77
2022/10/16 06:25:41;;;;;;;6.88;3.08;;;13.60;94.80;;;;;;5015972;28;20030;-76
2022/10/16 06:28:07;;;;;;;8.63;3.58;;;13.60;94.80;;;;;;5025290;28;20090;-76
2022/10/16 06:30:33;;;;;;;7.88;3.25;;;13.70;94.80;;;;;;5023444;28;20026;-75
2022/10/16 06:32:59;;;;;;;8.50;4.07;;;13.70;94.90;;;;;;5022442;28;20097;-76
2022/10/16 06:35:26;;;;;;;6.90;3.63;;;13.70;94.70;;;;;;5002807;28;20052;-76
2022/10/16 06:37:53;;;;;;;7.68;3.00;;;13.80;94.60;;;;;;5019553;28;20025;-76
2022/10/16 06:40:19;;;;;;;9.45;3.60;;;13.80;94.70;;;;;;5022203;28;20030;-77
2022/10/16 06:42:44;;;;;;;5.13;2.42;;;13.80;94.80;;;;;;5023042;28;20037;-76
2022/10/16 06:45:10;;;;;;;10.27;4.00;;;13.90;94.80;;;;;;5020488;28;20025;-78
2022/10/16 06:47:36;;;;;;;5.18;3.10;;;14.00;95.10;;;;;;5019074;28;20180;-76
2022/10/16 06:50:03;;;;;;;6.03;2.55;;;14.00;94.70;;;;;;5020669;28;20029;-77
2022/10/16 06:52:34;;;;;;;8.27;2.92;;;14.10;94.40;;;;;;5021521;28;20064;-76
2022/10/16 06:55:02;;;;;;;7.00;3.00;;;14.10;94.20;;;;;;5019328;28;20446;-77
2022/10/16 06:57:28;;;;;;;5.75;2.70;;;14.20;93.90;;;;;;5017056;28;20025;-79
2022/10/16 06:59:56;;;;;;;3.88;1.90;;;14.20;93.90;;;;;;5016060;28;20097;-76
2022/10/16 07:02:21;;;;;;;4.63;2.40;;;14.20;94.00;;;;;;5013223;28;20032;-77
2022/10/16 07:04:47;;;;;;;8.77;2.80;;;14.20;94.00;;;;;;5016451;28;20736;-77
2022/10/16 07:07:18;;;;;;;6.07;2.90;;;14.30;93.90;;;;;;5009363;28;20108;-78
2022/10/16 07:09:44;;;;;;;6.45;2.70;;;14.20;93.80;;;;;;4996455;28;20042;-76
2022/10/16 07:12:10;;;;;;;5.95;2.55;;;14.30;93.90;;;;;;5014375;28;20033;-77
2022/10/16 07:14:35;;;;;;;8.38;4.97;;;14.20;93.80;;;;;;5012767;28;20095;-76
2022/10/16 07:17:01;;;;;;;5.53;2.28;;;14.30;93.60;;;;;;5010500;28;20049;-78
2022/10/16 07:19:28;;;;;;;5.45;2.78;;;14.30;93.60;;;;;;5009871;28;20744;-76
2022/10/16 07:21:53;;;;;;;8.88;3.50;;;14.30;93.60;;;;;;5013529;28;20014;-78
2022/10/16 07:24:19;;;;;;;6.32;2.50;;;14.40;93.90;;;;;;5015948;28;20094;-79
2022/10/16 07:26:51;;;;;;;9.40;2.95;;;14.40;93.90;;;;;;5016926;28;20025;-78
2022/10/16 07:29:18;;;;;;;4.22;2.15;;;14.40;93.90;;;;;;5014569;28;20037;-78
2022/10/16 07:31:45;;;;;;;7.57;2.58;;;14.50;93.80;;;;;;5015685;28;20018;-77
2022/10/16 07:34:12;;;;;;;3.55;2.08;;;14.60;93.80;;;;;;5019781;28;20045;-78
2022/10/16 07:36:38;;;;;;;8.23;2.20;;;14.70;94.10;;;;;;5003090;28;20029;-79
2022/10/16 07:39:04;;;;;;;6.97;3.00;;;14.70;94.00;;;;;;5012827;28;20411;-79
2022/10/16 07:41:30;;;;;;;6.57;2.10;;;14.80;94.50;;;;;;5016081;28;20689;-77
2022/10/16 07:43:59;;;;;;;5.50;2.22;;;14.90;94.10;;;;;;5015968;28;20018;-80
2022/10/16 07:46:35;;;;;;;5.50;2.50;;;15.00;93.50;;;;;;4997467;28;20028;-81
2022/10/16 07:49:01;;;;;;;8.98;2.67;;;15.10;93.40;;;;;;4997755;28;20133;-78
2022/10/16 07:51:27;;;;;;;8.20;2.63;;;15.10;93.20;;;;;;5014759;28;20022;-79
2022/10/16 07:53:53;;;;;;;5.38;2.13;;;15.20;93.40;;;;;;5015619;28;20049;-79
2022/10/16 07:56:20;;;;;;;10.57;2.78;;;15.40;93.80;;;;;;5009467;28;20045;-78
2022/10/16 07:58:46;;;;;;;5.35;1.63;;;15.60;93.30;;;;;;5016223;28;20052;-79
2022/10/16 08:01:14;;;;;;;4.95;2.10;;;15.70;92.70;;;;;;5017795;28;20022;-78
2022/10/16 08:03:44;;;;;;;5.95;1.83;;;15.80;92.30;;;;;;5021783;28;20091;-77
2022/10/16 08:06:10;;;;;;;5.68;1.70;;;15.90;92.40;;;;;;5020605;28;20041;-79
2022/10/16 08:08:38;;;;;;;7.18;2.70;;;16.00;92.10;;;;;;5018533;28;20052;-78
2022/10/16 08:11:07;;;;;;;2.80;1.23;;;16.20;92.30;;;;;;5020289;28;20034;-78
2022/10/16 08:13:33;;;;;;;5.10;2.10;;;16.40;91.10;;;;;;5017169;28;20042;-78
2022/10/16 08:15:59;;;;;;;3.72;1.45;;;16.50;90.90;;;;;;5018211;28;20014;-78
2022/10/16 08:18:25;;;;;;;8.30;1.98;;;16.60;90.70;;;;;;5014860;28;20042;-79
2022/10/16 08:20:59;;;;;;;6.78;2.00;;;16.70;90.50;;;;;;5018531;28;20022;-75
2022/10/16 08:23:26;;;;;;;5.45;1.60;;;16.80;89.80;;;;;;5021544;28;20057;-78
2022/10/16 08:25:53;;;;;;;4.35;1.80;;;16.90;90.10;;;;;;5020662;28;20033;-77
2022/10/16 08:28:19;;;;;;;6.68;1.80;;;17.10;89.30;;;;;;5021011;28;20045;-78
2022/10/16 08:30:46;;;;;;;3.90;1.65;;;17.20;88.30;;;;;;5002833;28;20448;-73
2022/10/16 08:33:12;;;;;;;6.25;2.10;;;17.10;88.30;;;;;;5017168;28;20034;-77
2022/10/16 08:35:40;;;;;;;5.63;2.00;;;17.10;88.40;;;;;;5022799;28;20057;-78
2022/10/16 08:38:06;;;;;;;5.15;1.95;;;17.00;88.00;;;;;;5001034;28;20830;-78
2022/10/16 08:40:35;;;;;;;4.97;1.80;;;17.10;87.80;;;;;;5017770;28;20072;-76
2022/10/16 08:43:19;;;;;;;5.15;1.48;;;17.00;88.40;;;;;;5013640;28;20061;-76
2022/10/16 08:46:15;;;;;;;3.30;1.42;;;17.10;87.40;;;;;;5019055;28;20040;-78
2022/10/16 08:48:51;;;;;;;4.60;1.40;;;17.30;87.00;;;;;;5017744;28;20030;-79
2022/10/16 08:51:22;;;;;;;6.72;1.65;;;17.50;86.50;;;;;;5020123;28;20025;-78
2022/10/16 08:53:57;;;;;;;3.08;1.05;;;17.70;85.70;;;;;;5021823;28;20041;-75
2022/10/16 08:56:23;;;;;;;4.50;1.50;;;17.90;85.10;;;;;;5017480;28;20376;-78
2022/10/16 08:58:51;;;;;;;4.28;1.30;;;18.00;84.70;;;;;;5023581;28;20726;-78
2022/10/16 09:01:20;;;;;;;15.15;2.80;;;18.00;84.80;;;;;;5014841;28;20027;-81
2022/10/16 09:03:57;;;;;;;6.22;2.00;;;18.00;82.70;;;;;;5015952;28;20049;-81
2022/10/16 09:06:47;;;;;;;5.95;2.03;;;18.00;83.30;;;;;;4988977;28;20021;-81
2022/10/16 09:09:28;;;;;;;7.13;1.57;;;18.10;83.70;;;;;;5012609;28;20618;-78
2022/10/16 09:12:24;;;;;;;8.43;2.03;;;18.30;83.80;;;;;;5014068;28;20048;-80
2022/10/16 09:15:02;;;;;;;7.53;2.30;;;18.40;82.30;;;;;;5008570;28;20033;-80
2022/10/16 09:17:59;;;;;;;8.95;1.83;;;18.30;81.00;;;;;;5017193;28;20650;-80
2022/10/16 09:20:56;;;;;;;3.45;1.25;;;18.40;82.20;;;;;;5009895;28;20116;-81
2022/10/16 09:23:28;;;;;;;7.75;2.33;;;18.60;81.60;;;;;;5014241;28;20022;-79
2022/10/16 09:25:56;;;;;;;11.20;2.75;;;18.70;82.20;;;;;;5016489;28;20100;-82
2022/10/16 09:28:24;;;;;;;4.80;1.75;;;18.90;79.40;;;;;;5016824;28;20025;-82
2022/10/16 09:30:50;;;;;;;5.93;2.00;;;19.00;79.50;;;;;;5014753;28;20026;-79
2022/10/16 09:33:19;;;;;;;7.13;2.10;;;19.10;79.00;;;;;;5014609;28;20030;-78
2022/10/16 09:35:50;;;;;;;5.70;2.28;;;19.30;78.50;;;;;;5015479;28;20450;-79
2022/10/16 09:38:24;;;;;;;5.88;1.75;;;19.40;78.80;;;;;;5014298;28;20427;-82
2022/10/16 09:40:50;;;;;;;8.57;1.60;;;19.50;79.00;;;;;;5011185;28;20349;-82
2022/10/16 09:43:24;;;;;;;9.73;2.22;;;19.70;77.80;;;;;;5014491;28;20463;-79
2022/10/16 09:46:02;;;;;;;8.65;2.40;;;19.60;76.20;;;;;;5012654;28;20422;-80
2022/10/16 09:48:43;;;;;;;8.13;2.05;;;19.60;76.40;;;;;;5013915;28;20026;-80
2022/10/16 09:51:37;;;;;;;9.57;2.00;;;19.70;76.90;;;;;;5011408;28;20036;-82
2022/10/16 09:54:13;;;;;;;12.85;2.17;;;19.70;76.80;;;;;;5011367;28;20050;-81
2022/10/16 09:56:41;;;;;;;7.43;1.77;;;19.70;76.90;;;;;;5013607;28;20436;-81
2022/10/16 09:59:20;;;;;;;4.03;1.10;;;19.80;77.90;;;;;;5014850;28;20476;-84
2022/10/16 10:01:54;;;;;;;7.40;2.15;;;20.00;80.60;;;;;;4998163;28;20029;-79
2022/10/16 10:04:22;;;;;;;7.35;2.08;;;20.10;75.40;;;;;;5012524;28;20044;-80
2022/10/16 10:06:51;;;;;;;5.25;1.27;;;20.20;80.30;;;;;;5012551;28;20095;-81
2022/10/16 10:09:26;;;;;;;7.22;1.60;;;20.40;80.50;;;;;;5011181;28;20021;-81
2022/10/16 10:11:51;;;;;;;7.20;1.55;;;20.50;81.70;;;;;;5016189;28;20106;-81
2022/10/16 10:14:24;;;;;;;10.45;2.35;;;20.70;80.60;;;;;;5013108;28;20128;-79
2022/10/16 10:16:52;;;;;;;7.90;2.25;;;20.90;80.50;;;;;;5015963;28;20041;-78
2022/10/16 10:19:21;;;;;;;4.45;1.45;;;21.00;77.70;;;;;;4995553;28;20094;-82
2022/10/16 10:21:47;;;;;;;9.95;2.35;;;21.20;76.20;;;;;;5016290;28;20018;-79
2022/10/16 10:24:16;;;;;;;8.00;1.52;;;21.30;74.90;;;;;;5008704;28;20034;-80
2022/10/16 10:26:59;;;;;;;6.40;1.83;;;21.40;76.50;;;;;;5007766;28;20022;-79
2022/10/16 10:29:58;;;;;;;8.40;1.95;;;21.60;79.30;;;;;;5005948;28;20022;-80
2022/10/16 10:32:42;;;;;;;11.38;2.78;;;21.60;72.00;;;;;;5015102;28;20407;-75
2022/10/16 10:35:19;;;;;;;10.77;2.42;;;21.50;68.40;;;;;;5014715;28;20028;-79
2022/10/16 10:37:55;;;;;;;8.23;1.92;;;21.50;72.80;;;;;;4995495;28;20057;-80
2022/10/16 10:40:38;;;;;;;10.23;2.60;;;21.40;72.30;;;;;;5000543;28;20064;-83
2022/10/16 10:43:16;;;;;;;12.93;2.60;;;21.50;73.00;;;;;;5016007;28;20051;-80
2022/10/16 10:45:54;;;;;;;13.63;2.35;;;21.50;69.20;;;;;;5014767;28;20046;-82
2022/10/16 10:48:48;;;;;;;13.25;2.25;;;21.60;67.80;;;;;;5012194;28;20156;-83
2022/10/16 10:51:22;;;;;;;11.10;2.53;;;21.70;71.00;;;;;;5007645;28;20049;-78
2022/10/16 10:54:13;;;;;;;11.32;2.20;;;21.90;66.70;;;;;;5005339;28;20048;-79
2022/10/16 10:56:56;;;;;;;11.48;2.30;;;21.90;65.90;;;;;;5010565;28;20120;-79
2022/10/16 10:59:51;;;;;;;14.32;2.83;;;21.80;65.20;;;;;;5007018;28;20124;-83
2022/10/16 11:02:42;;;;;;;12.02;2.13;;;21.70;68.40;;;;;;4989001;28;20044;-81
2022/10/16 11:05:52;;;;;;;13.57;2.70;;;21.80;67.50;;;;;;5005179;28;20038;-80
2022/10/16 11:08:32;;;;;;;17.48;2.63;;;22.00;64.10;;;;;;4947840;28;20055;-80
2022/10/16 11:11:15;;;;;;;15.52;3.17;;;22.00;63.50;;;;;;5001723;28;20045;-80
2022/10/16 11:13:46;;;;;;;10.25;2.05;;;22.00;65.30;;;;;;5007592;28;20049;-79
2022/10/16 11:16:39;;;;;;;14.70;2.25;;;22.00;62.40;;;;;;4986818;28;20519;-81
2022/10/16 11:19:37;;;;;;;6.90;1.60;;;21.80;64.90;;;;;;5004141;28;20059;-78
2022/10/16 11:22:38;;;;;;;10.73;2.30;;;21.60;65.40;;;;;;5004081;28;20022;-77
2022/10/16 11:25:27;;;;;;;13.20;2.40;;;21.50;62.80;;;;;;4986937;28;20053;-79
2022/10/16 11:28:20;;;;;;;9.13;1.77;;;21.30;64.10;;;;;;4985538;28;20022;-79
2022/10/16 11:31:07;;;;;;;7.32;1.83;;;21.40;61.80;;;;;;4989688;28;20024;-77
2022/10/16 11:33:43;;;;;;;9.45;2.33;;;21.50;64.50;;;;;;5003111;28;20052;-78
2022/10/16 11:36:18;;;;;;;10.30;2.25;;;21.60;63.30;;;;;;5002797;28;20029;-77
2022/10/16 11:39:15;;;;;;;14.65;2.83;;;21.60;64.90;;;;;;5003182;28;20017;-78
2022/10/16 11:42:02;;;;;;;9.10;2.00;;;21.40;61.70;;;;;;4985751;28;20044;-78
2022/10/16 11:44:43;;;;;;;14.10;2.20;;;21.40;65.90;;;;;;5002705;28;20091;-77
2022/10/16 11:47:33;;;;;;;10.35;1.83;;;21.40;65.30;;;;;;5002136;28;20049;-77
2022/10/16 11:50:04;;;;;;;7.83;2.00;;;21.50;66.10;;;;;;4985369;28;20395;-78
2022/10/16 11:52:40;;;;;;;11.50;3.15;;;21.40;62.40;;;;;;5002775;28;20039;-76
2022/10/16 11:55:18;;;;;;;16.15;5.28;;;21.10;61.30;;;;;;4987110;28;20030;-77
2022/10/16 11:57:52;;;;;;;9.18;2.50;;;21.00;62.90;;;;;;5003828;28;20045;-78
2022/10/16 12:00:25;;;;;;;13.00;2.60;;;21.20;66.00;;;;;;5001071;28;20030;-78
2022/10/16 12:03:15;;;;;;;9.05;2.53;;;21.40;63.00;;;;;;5002258;28;20026;-78
2022/10/16 12:06:04;;;;;;;12.45;2.63;;;21.50;62.20;;;;;;5003334;28;20033;-77
2022/10/16 12:08:34;;;;;;;11.07;2.13;;;21.70;66.30;;;;;;5002088;28;20022;-79
2022/10/16 12:11:27;;;;;;;10.07;1.80;;;21.90;66.60;;;;;;5006575;28;20137;-76
2022/10/16 12:14:12;;;;;;;8.88;2.92;;;22.20;66.10;;;;;;4989904;28;20037;-78
2022/10/16 12:16:39;;;;;;;9.68;2.90;;;22.40;64.30;;;;;;5008961;28;20033;-79
2022/10/16 12:19:16;;;;;;;10.63;3.10;;;22.60;63.10;;;;;;5007465;28;20054;-79
2022/10/16 12:21:43;;;;;;;10.13;2.10;;;22.60;61.80;;;;;;5008259;28;20034;-77
2022/10/16 12:24:37;;;;;;;10.50;2.38;;;22.60;61.80;;;;;;5009476;28;20041;-78
2022/10/16 12:27:06;;;;;;;10.68;1.80;;;22.60;59.90;;;;;;5006932;28;20041;-79
2022/10/16 12:29:43;;;;;;;7.07;1.90;;;22.50;60.90;;;;;;4991502;28;21054;-76
2022/10/16 12:32:30;;;;;;;13.00;2.15;;;22.40;60.60;;;;;;5006786;28;20034;-77
2022/10/16 12:34:57;;;;;;;10.77;1.75;;;22.40;62.80;;;;;;4997971;28;20113;-79
2022/10/16 12:37:30;;;;;;;9.07;2.25;;;22.50;58.70;;;;;;4972793;28;20030;-80
2022/10/16 12:39:57;;;;;;;9.43;1.65;;;22.50;63.70;;;;;;5008265;28;20582;-83
2022/10/16 12:42:26;;;;;;;9.05;1.80;;;22.50;63.10;;;;;;5007039;28;20525;-80
2022/10/16 12:44:52;;;;;;;9.30;1.90;;;22.50;61.30;;;;;;5010332;28;20041;-82
2022/10/16 12:47:30;;;;;;;9.95;1.75;;;22.60;65.90;;;;;;4990782;28;21107;-79
2022/10/16 12:49:58;;;;;;;8.50;2.03;;;22.70;61.90;;;;;;5010997;28;20084;-80
2022/10/16 12:52:36;;;;;;;7.68;1.73;;;22.70;61.90;;;;;;4993326;28;20080;-81
2022/10/16 12:55:15;;;;;;;9.75;2.70;;;22.60;59.50;;;;;;5013298;28;20087;-81
2022/10/16 12:58:02;;;;;;;9.55;1.88;;;22.70;60.20;;;;;;4993105;28;20029;-81
2022/10/16 13:00:57;;;;;;;5.88;1.88;;;22.80;59.40;;;;;;5009450;28;20367;-77
2022/10/16 13:04:00;;;;;;;8.68;1.70;;;22.90;60.70;;;;;;5014655;28;20471;-84
2022/10/16 13:07:03;;;;;;;7.40;1.60;;;22.90;63.80;;;;;;5012065;28;20391;-83
2022/10/16 13:09:43;;;;;;;6.70;1.95;;;23.00;66.50;;;;;;4998266;28;20026;-82